Time;durP1;ratioP1;P1;durP2;ratioP2;P2;SDS_P1;SDS_P2;PMS_P1;PMS_P2;Temp;Humidity;BMP_temperature;BMP_pressure;BME280_temperature;BME280_humidity;BME280_pressure;Samples;Min_cycle;Max_cycle;Signal;HPM_P1;HPM_P2
2021/08/13 00:01:35;;;;;;;26.85;20.73;;;18.40;84.80;;;;;;5055913;28;20253;-84
2021/08/13 00:04:00;;;;;;;24.63;16.60;;;18.40;84.90;;;;;;5074376;28;20329;-84
2021/08/13 00:06:26;;;;;;;23.13;17.25;;;18.40;84.70;;;;;;5056446;28;20210;-84
2021/08/13 00:08:51;;;;;;;25.63;18.88;;;18.40;84.30;;;;;;5074357;28;20722;-85
2021/08/13 00:11:17;;;;;;;20.65;17.85;;;18.50;84.20;;;;;;5056445;28;20175;-84
2021/08/13 00:13:43;;;;;;;18.25;16.33;;;18.50;84.00;;;;;;5074180;28;20203;-84
2021/08/13 00:16:09;;;;;;;18.48;16.67;;;18.60;83.80;;;;;;5056295;28;20231;-84
2021/08/13 00:18:34;;;;;;;22.55;17.63;;;18.60;83.80;;;;;;5074373;28;20164;-84
2021/08/13 00:21:00;;;;;;;20.58;18.23;;;18.60;83.90;;;;;;5056249;28;20596;-84
2021/08/13 00:23:25;;;;;;;19.88;17.88;;;18.50;84.00;;;;;;5074018;28;20767;-84
2021/08/13 00:25:51;;;;;;;20.13;16.98;;;18.60;83.80;;;;;;5074058;28;20549;-85
2021/08/13 00:28:17;;;;;;;21.15;18.02;;;18.50;83.70;;;;;;5074269;28;20186;-84
2021/08/13 00:30:42;;;;;;;21.42;16.42;;;18.60;84.10;;;;;;5056120;28;20203;-84
2021/08/13 00:33:08;;;;;;;27.70;16.60;;;18.50;84.30;;;;;;5055868;28;20631;-84
2021/08/13 00:35:34;;;;;;;18.52;16.45;;;18.50;84.80;;;;;;5055966;28;20225;-84
2021/08/13 00:37:59;;;;;;;23.73;17.65;;;18.50;84.70;;;;;;5073804;28;20171;-84
2021/08/13 00:40:25;;;;;;;19.73;17.73;;;18.40;84.80;;;;;;5073966;28;20183;-84
2021/08/13 00:42:51;;;;;;;18.67;15.05;;;18.50;84.80;;;;;;5073787;28;20183;-84
2021/08/13 00:45:17;;;;;;;19.50;16.02;;;18.40;84.80;;;;;;5055792;28;20664;-84
2021/08/13 00:47:42;;;;;;;19.40;16.63;;;18.50;84.70;;;;;;5073669;28;20179;-84
2021/08/13 00:50:09;;;;;;;22.65;18.15;;;18.50;84.50;;;;;;5073683;28;20171;-84
2021/08/13 00:52:34;;;;;;;27.98;18.73;;;18.40;84.90;;;;;;5055534;28;20245;-84
2021/08/13 00:55:00;;;;;;;23.92;20.58;;;18.30;84.70;;;;;;5073577;28;20191;-84
2021/08/13 00:57:26;;;;;;;25.83;21.33;;;18.30;85.70;;;;;;5055700;28;20597;-84
2021/08/13 00:59:52;;;;;;;34.78;20.00;;;18.20;86.20;;;;;;5073806;28;20182;-84
2021/08/13 01:02:17;;;;;;;24.05;21.27;;;18.10;86.60;;;;;;5073567;28;20202;-84
2021/08/13 01:04:44;;;;;;;23.08;20.67;;;18.20;86.40;;;;;;5055825;28;20179;-84
2021/08/13 01:07:10;;;;;;;21.88;19.63;;;18.20;86.10;;;;;;5073389;28;20167;-84
2021/08/13 01:09:39;;;;;;;22.02;19.85;;;18.20;85.50;;;;;;5073474;28;20174;-84
2021/08/13 01:12:17;;;;;;;22.25;18.00;;;18.30;85.20;;;;;;5072770;28;20199;-84
2021/08/13 01:14:54;;;;;;;21.08;17.75;;;18.30;85.00;;;;;;5055178;28;20259;-84
2021/08/13 01:17:22;;;;;;;20.15;17.98;;;18.40;84.80;;;;;;5073636;28;20162;-84
2021/08/13 01:20:18;;;;;;;23.10;16.95;;;18.40;84.70;;;;;;5055358;28;20451;-83
2021/08/13 01:23:12;;;;;;;22.40;17.27;;;18.40;84.70;;;;;;5055132;28;20302;-84
2021/08/13 01:25:43;;;;;;;20.50;17.88;;;18.50;84.70;;;;;;5055240;28;20164;-83
2021/08/13 01:28:45;;;;;;;22.67;17.08;;;18.50;84.70;;;;;;5055286;28;20254;-84
2021/08/13 01:31:20;;;;;;;21.77;16.58;;;18.40;84.80;;;;;;5073315;28;20159;-84
2021/08/13 01:33:48;;;;;;;23.50;17.13;;;18.50;85.00;;;;;;5054948;28;20199;-84
2021/08/13 01:36:15;;;;;;;28.40;16.55;;;18.50;85.70;;;;;;5073310;28;20183;-84
2021/08/13 01:38:42;;;;;;;20.58;17.45;;;18.40;85.60;;;;;;5073413;28;20246;-84
2021/08/13 01:41:11;;;;;;;25.17;18.00;;;18.40;85.60;;;;;;5055215;28;20179;-84
2021/08/13 01:43:39;;;;;;;23.52;16.70;;;18.40;85.80;;;;;;5073245;28;20183;-84
2021/08/13 01:46:06;;;;;;;23.17;16.52;;;18.40;85.90;;;;;;5072966;28;20164;-84
2021/08/13 01:48:34;;;;;;;26.27;18.40;;;18.40;85.80;;;;;;5054997;28;20184;-84
2021/08/13 01:51:00;;;;;;;21.80;19.27;;;18.50;85.90;;;;;;5073016;28;20179;-84
2021/08/13 01:53:26;;;;;;;24.20;21.52;;;18.40;86.10;;;;;;5054847;28;20649;-84
2021/08/13 01:55:53;;;;;;;26.25;22.80;;;18.40;86.20;;;;;;5073043;28;20543;-84
2021/08/13 01:58:20;;;;;;;25.23;19.92;;;18.40;86.30;;;;;;5073003;28;20199;-84
2021/08/13 02:00:49;;;;;;;26.85;22.85;;;18.40;86.50;;;;;;5072899;28;20171;-84
2021/08/13 02:03:15;;;;;;;25.05;22.35;;;18.40;86.20;;;;;;5054747;28;20198;-84
2021/08/13 02:05:43;;;;;;;23.83;21.42;;;18.40;86.40;;;;;;5072871;28;20544;-84
2021/08/13 02:08:09;;;;;;;26.63;22.60;;;18.40;86.30;;;;;;5072842;28;20172;-84
2021/08/13 02:10:37;;;;;;;24.98;22.27;;;18.30;86.30;;;;;;5054864;28;20180;-84
2021/08/13 02:13:04;;;;;;;27.48;22.63;;;18.30;86.10;;;;;;5072617;28;20207;-84
2021/08/13 02:15:30;;;;;;;33.00;22.13;;;18.30;86.00;;;;;;5055041;28;20172;-84
2021/08/13 02:18:11;;;;;;;30.55;21.85;;;18.30;86.70;;;;;;5072702;28;20199;-84
2021/08/13 02:20:39;;;;;;;29.00;22.55;;;18.30;87.00;;;;;;5055351;28;20198;-84
2021/08/13 02:23:09;;;;;;;27.58;22.23;;;18.20;87.20;;;;;;5054632;28;20225;-84
2021/08/13 02:25:35;;;;;;;29.85;22.95;;;18.20;87.20;;;;;;5058014;28;20171;-84
2021/08/13 02:28:00;;;;;;;26.13;21.48;;;18.20;87.10;;;;;;5058825;28;20677;-84
2021/08/13 02:30:27;;;;;;;22.35;19.40;;;18.20;87.30;;;;;;5058346;28;20714;-84
2021/08/13 02:32:53;;;;;;;23.00;17.90;;;18.10;87.20;;;;;;5058172;28;20203;-84
2021/08/13 02:35:19;;;;;;;22.00;18.15;;;18.10;86.90;;;;;;5058258;28;20266;-84
2021/08/13 02:38:20;;;;;;;21.42;17.42;;;18.10;86.70;;;;;;5076235;28;20282;-84
2021/08/13 02:40:58;;;;;;;18.90;16.88;;;18.00;86.30;;;;;;5027212;28;20666;-85
2021/08/13 02:43:31;;;;;;;21.73;18.50;;;18.00;86.10;;;;;;5075924;28;20199;-84
2021/08/13 02:46:01;;;;;;;20.65;18.25;;;18.00;86.10;;;;;;5076286;28;20186;-84
2021/08/13 02:48:28;;;;;;;19.17;17.23;;;17.90;86.30;;;;;;5076662;28;20163;-84
2021/08/13 02:50:55;;;;;;;23.33;18.27;;;17.90;86.20;;;;;;5075926;28;20543;-84
2021/08/13 02:53:24;;;;;;;22.05;15.57;;;17.80;86.10;;;;;;5075773;28;20210;-84
2021/08/13 02:56:03;;;;;;;20.67;17.48;;;17.90;86.00;;;;;;5057857;28;20178;-84
2021/08/13 02:58:43;;;;;;;27.20;17.83;;;17.80;85.80;;;;;;5057957;28;20164;-84
2021/08/13 03:01:13;;;;;;;25.65;19.35;;;17.80;85.90;;;;;;5075788;28;20151;-84
2021/08/13 03:03:40;;;;;;;20.80;18.40;;;17.80;85.90;;;;;;5058587;28;20289;-84
2021/08/13 03:06:07;;;;;;;24.67;18.88;;;17.80;85.80;;;;;;5077245;28;20589;-84
2021/08/13 03:08:34;;;;;;;27.58;17.02;;;17.70;85.60;;;;;;5057592;28;20229;-84
2021/08/13 03:11:03;;;;;;;23.45;18.05;;;17.60;85.70;;;;;;5075593;28;20206;-84
2021/08/13 03:13:30;;;;;;;26.90;16.95;;;17.60;85.70;;;;;;5057373;28;20629;-84
2021/08/13 03:15:57;;;;;;;24.85;19.65;;;17.50;85.50;;;;;;5057532;28;20738;-84
2021/08/13 03:18:24;;;;;;;21.70;19.40;;;17.50;85.50;;;;;;5075450;28;20175;-84
2021/08/13 03:20:50;;;;;;;21.55;19.40;;;17.50;85.70;;;;;;5057534;28;20175;-84
2021/08/13 03:23:16;;;;;;;26.88;21.35;;;17.50;86.00;;;;;;5057130;28;20577;-84
2021/08/13 03:25:43;;;;;;;28.50;21.55;;;17.50;85.60;;;;;;5057220;28;20682;-84
2021/08/13 03:28:09;;;;;;;33.80;24.00;;;17.50;86.40;;;;;;5080681;28;20186;-85
2021/08/13 03:30:43;;;;;;;23.50;21.10;;;17.30;87.80;;;;;;5078823;28;20167;-84
2021/08/13 03:33:11;;;;;;;32.10;22.60;;;17.20;87.90;;;;;;5074907;28;20240;-84
2021/08/13 03:35:38;;;;;;;23.33;20.83;;;17.10;87.90;;;;;;5056073;28;20207;-84
2021/08/13 03:38:04;;;;;;;25.85;20.88;;;17.10;88.10;;;;;;5074981;28;20175;-84
2021/08/13 03:40:30;;;;;;;24.58;19.17;;;17.20;87.70;;;;;;5057062;28;20171;-84
2021/08/13 03:42:55;;;;;;;24.35;18.42;;;17.20;86.90;;;;;;5056961;28;20732;-84
2021/08/13 03:45:21;;;;;;;23.88;20.40;;;17.30;86.70;;;;;;5057001;28;20170;-84
2021/08/13 03:47:47;;;;;;;25.33;22.25;;;17.20;86.70;;;;;;5075130;28;20171;-84
2021/08/13 03:50:12;;;;;;;27.58;21.60;;;17.20;87.20;;;;;;5056968;28;20171;-84
2021/08/13 03:52:39;;;;;;;30.77;20.45;;;17.20;87.70;;;;;;5074738;28;20698;-84
2021/08/13 03:55:05;;;;;;;23.55;21.10;;;17.10;87.20;;;;;;5074567;28;20199;-84
2021/08/13 03:57:31;;;;;;;28.48;22.65;;;17.20;87.00;;;;;;5056849;28;20172;-84
2021/08/13 03:59:57;;;;;;;29.35;24.00;;;17.20;87.40;;;;;;5074885;28;20172;-84
2021/08/13 04:02:22;;;;;;;27.90;25.10;;;17.10;88.40;;;;;;5074457;28;20249;-84
2021/08/13 04:04:48;;;;;;;25.30;22.40;;;17.00;88.90;;;;;;5074443;28;20266;-84
2021/08/13 04:07:13;;;;;;;24.73;20.98;;;17.00;88.40;;;;;;5056563;28;20214;-84
2021/08/13 04:09:39;;;;;;;22.02;19.65;;;17.00;88.20;;;;;;5074649;28;20209;-84
2021/08/13 04:12:05;;;;;;;22.85;19.88;;;17.10;87.40;;;;;;5056355;28;20653;-84
2021/08/13 04:14:31;;;;;;;22.25;19.17;;;17.10;87.00;;;;;;5074183;28;20199;-84
2021/08/13 04:16:57;;;;;;;21.23;18.83;;;17.00;87.00;;;;;;5074216;28;20171;-84
2021/08/13 04:19:22;;;;;;;24.33;20.90;;;17.00;86.70;;;;;;5074132;28;20661;-84
2021/08/13 04:21:49;;;;;;;27.20;19.58;;;17.00;86.90;;;;;;5074108;28;20241;-84
2021/08/13 04:24:14;;;;;;;26.92;21.60;;;17.00;86.60;;;;;;5074210;28;20202;-84
2021/08/13 04:26:40;;;;;;;22.25;19.95;;;17.00;86.80;;;;;;5074155;28;20640;-83
2021/08/13 04:29:05;;;;;;;24.85;22.25;;;17.00;86.60;;;;;;5074053;28;20639;-84
2021/08/13 04:31:31;;;;;;;25.23;21.80;;;17.00;86.60;;;;;;5073897;28;20543;-84
2021/08/13 04:33:57;;;;;;;30.33;24.38;;;17.10;86.60;;;;;;5073796;28;20259;-84
2021/08/13 04:36:22;;;;;;;25.90;22.92;;;17.10;87.20;;;;;;5074146;28;20538;-84
2021/08/13 04:38:48;;;;;;;31.25;24.67;;;17.00;87.50;;;;;;5073835;28;20182;-84
2021/08/13 04:41:14;;;;;;;28.75;25.75;;;17.10;87.40;;;;;;5056085;28;20175;-84
2021/08/13 04:43:39;;;;;;;28.17;23.80;;;17.00;87.20;;;;;;5056026;28;20266;-84
2021/08/13 04:46:05;;;;;;;39.53;21.50;;;17.10;87.10;;;;;;5073773;28;20175;-84
2021/08/13 04:48:30;;;;;;;32.83;23.70;;;17.10;86.80;;;;;;5055614;28;20636;-84
2021/08/13 04:50:56;;;;;;;26.90;22.83;;;17.10;86.70;;;;;;5073995;28;20175;-84
2021/08/13 04:53:22;;;;;;;31.50;25.40;;;17.10;87.00;;;;;;5073490;28;20250;-84
2021/08/13 04:55:47;;;;;;;25.00;22.30;;;17.10;87.00;;;;;;5073768;28;20182;-84
2021/08/13 04:58:13;;;;;;;28.38;25.08;;;17.10;87.40;;;;;;5073705;28;20172;-84
2021/08/13 05:00:39;;;;;;;30.52;25.60;;;17.10;87.20;;;;;;5073442;28;20169;-84
2021/08/13 05:03:08;;;;;;;35.45;26.13;;;17.10;87.30;;;;;;5055478;28;20199;-84
2021/08/13 05:05:34;;;;;;;32.70;26.92;;;17.20;87.40;;;;;;5055686;28;20221;-84
2021/08/13 05:08:00;;;;;;;31.73;28.27;;;17.10;88.40;;;;;;5073380;28;20171;-84
2021/08/13 05:10:25;;;;;;;29.83;26.17;;;17.10;88.60;;;;;;5055463;28;20175;-84
2021/08/13 05:12:51;;;;;;;35.05;27.77;;;17.10;88.90;;;;;;5055301;28;20244;-84
2021/08/13 05:15:17;;;;;;;37.97;30.67;;;17.10;89.10;;;;;;5055339;28;20248;-84
2021/08/13 05:17:43;;;;;;;34.45;30.08;;;17.10;89.60;;;;;;5055295;28;20573;-84
2021/08/13 05:20:10;;;;;;;35.28;31.48;;;17.10;89.80;;;;;;5073502;28;20216;-84
2021/08/13 05:22:36;;;;;;;42.10;33.53;;;17.10;90.00;;;;;;5055132;28;20214;-84
2021/08/13 05:25:07;;;;;;;41.10;33.63;;;17.00;90.20;;;;;;5073134;28;20708;-84
2021/08/13 05:27:32;;;;;;;41.47;33.30;;;17.00;90.30;;;;;;5073562;28;20169;-84
2021/08/13 05:29:58;;;;;;;35.75;31.73;;;17.10;90.20;;;;;;5073155;28;20250;-84
2021/08/13 05:32:24;;;;;;;36.60;31.90;;;17.20;90.20;;;;;;5073260;28;20693;-83
2021/08/13 05:34:51;;;;;;;36.47;32.53;;;17.20;90.00;;;;;;5073376;28;20260;-84
2021/08/13 05:37:16;;;;;;;36.03;31.73;;;17.30;89.90;;;;;;5073443;28;20168;-84
2021/08/13 05:39:42;;;;;;;36.58;32.42;;;17.30;89.90;;;;;;5073096;28;20217;-84
2021/08/13 05:42:08;;;;;;;38.53;30.67;;;17.50;89.90;;;;;;5055078;28;20195;-84
2021/08/13 05:44:34;;;;;;;38.35;30.42;;;17.50;89.90;;;;;;5073075;28;20525;-84
2021/08/13 05:46:59;;;;;;;34.58;29.35;;;17.60;89.90;;;;;;5055039;28;20207;-84
2021/08/13 05:49:25;;;;;;;35.08;29.90;;;17.70;89.90;;;;;;5055064;28;20193;-84
2021/08/13 05:51:51;;;;;;;35.40;30.00;;;17.80;89.80;;;;;;5054835;28;20654;-84
2021/08/13 05:54:16;;;;;;;38.58;26.55;;;17.90;89.80;;;;;;5072987;28;20282;-84
2021/08/13 05:56:42;;;;;;;31.08;22.55;;;18.00;89.20;;;;;;5072938;28;20224;-84
2021/08/13 05:59:07;;;;;;;23.85;21.33;;;18.10;88.10;;;;;;5056218;28;20176;-84
2021/08/13 06:01:33;;;;;;;25.73;21.42;;;18.20;87.80;;;;;;5076928;28;20171;-84
2021/08/13 06:03:59;;;;;;;23.77;20.10;;;18.20;87.00;;;;;;5076929;28;20242;-84
2021/08/13 06:06:26;;;;;;;22.58;19.83;;;18.30;87.10;;;;;;5076782;28;20597;-84
2021/08/13 06:08:52;;;;;;;22.73;17.75;;;18.30;86.90;;;;;;5077092;28;20189;-84
2021/08/13 06:11:18;;;;;;;24.42;19.58;;;18.40;86.40;;;;;;5058831;28;20175;-84
2021/08/13 06:13:43;;;;;;;21.73;19.42;;;18.40;86.30;;;;;;5076480;28;20297;-84
2021/08/13 06:16:09;;;;;;;27.38;19.40;;;18.50;86.30;;;;;;5058728;28;20182;-84
2021/08/13 06:18:36;;;;;;;21.85;18.83;;;18.60;86.50;;;;;;5076633;28;20187;-84
2021/08/13 06:21:02;;;;;;;22.23;18.75;;;18.70;86.30;;;;;;5058668;28;20240;-84
2021/08/13 06:23:28;;;;;;;19.92;17.63;;;18.80;86.10;;;;;;5076215;28;20215;-84
2021/08/13 06:25:53;;;;;;;23.65;18.65;;;18.90;85.30;;;;;;5076482;28;20255;-84
2021/08/13 06:28:19;;;;;;;25.45;18.92;;;19.00;85.70;;;;;;5076339;28;20212;-84
2021/08/13 06:30:45;;;;;;;25.48;17.55;;;19.10;85.90;;;;;;5076314;28;20510;-84
2021/08/13 06:33:10;;;;;;;23.55;18.15;;;19.20;85.50;;;;;;5076073;28;20233;-84
2021/08/13 06:35:36;;;;;;;22.42;18.85;;;19.30;83.90;;;;;;5058428;28;20541;-84
2021/08/13 06:38:02;;;;;;;19.50;17.50;;;19.30;83.10;;;;;;5058369;28;20182;-83
2021/08/13 06:40:32;;;;;;;25.13;17.30;;;19.30;82.50;;;;;;5058279;28;20167;-84
2021/08/13 06:42:57;;;;;;;21.77;18.10;;;19.40;82.30;;;;;;5076047;28;20652;-84
2021/08/13 06:45:23;;;;;;;21.50;17.13;;;19.40;82.10;;;;;;5076249;28;20240;-84
2021/08/13 06:47:49;;;;;;;22.55;17.48;;;19.40;82.90;;;;;;5075965;28;20673;-83
2021/08/13 06:50:16;;;;;;;29.70;19.27;;;19.50;82.40;;;;;;5058114;28;20167;-84
2021/08/13 06:52:42;;;;;;;22.52;18.10;;;19.50;82.60;;;;;;5059968;28;20201;-83
2021/08/13 06:55:09;;;;;;;21.05;17.60;;;19.50;82.20;;;;;;5077919;28;20291;-84
2021/08/13 06:57:35;;;;;;;27.27;18.20;;;19.50;82.30;;;;;;5077775;28;20224;-86
2021/08/13 07:00:03;;;;;;;21.50;17.67;;;19.60;82.10;;;;;;5079442;28;20191;-85
2021/08/13 07:02:29;;;;;;;21.27;17.42;;;19.80;81.40;;;;;;5075878;28;20195;-84
2021/08/13 07:04:54;;;;;;;22.67;17.45;;;19.90;80.90;;;;;;5075649;28;20174;-85
2021/08/13 07:07:20;;;;;;;22.70;16.70;;;20.10;80.50;;;;;;5075733;28;20175;-85
2021/08/13 07:09:47;;;;;;;28.27;17.80;;;20.20;79.20;;;;;;5075434;28;20183;-85
2021/08/13 07:12:14;;;;;;;24.67;17.95;;;20.20;79.30;;;;;;5057502;28;20571;-85
2021/08/13 07:14:39;;;;;;;25.60;18.45;;;20.20;79.40;;;;;;5075382;28;20254;-85
2021/08/13 07:17:05;;;;;;;28.38;19.33;;;20.00;79.40;;;;;;5057571;28;20639;-85
2021/08/13 07:19:30;;;;;;;26.52;19.83;;;20.00;80.30;;;;;;5058732;28;20266;-84
2021/08/13 07:21:56;;;;;;;24.52;19.10;;;20.00;80.60;;;;;;5077121;28;20532;-85
2021/08/13 07:24:23;;;;;;;28.27;19.38;;;20.10;80.90;;;;;;5058758;28;20181;-85
2021/08/13 07:26:49;;;;;;;24.67;19.60;;;20.10;80.90;;;;;;5075378;28;20170;-85
2021/08/13 07:29:15;;;;;;;25.90;19.10;;;20.20;81.10;;;;;;5057711;28;20176;-85
2021/08/13 07:31:40;;;;;;;27.05;19.95;;;20.30;81.20;;;;;;5057439;28;20182;-85
2021/08/13 07:34:06;;;;;;;28.88;19.25;;;20.50;80.30;;;;;;5057331;28;20235;-85
2021/08/13 07:36:32;;;;;;;29.45;19.67;;;20.60;79.60;;;;;;5057766;28;20223;-85
2021/08/13 07:38:57;;;;;;;26.63;19.20;;;20.60;79.20;;;;;;5077243;28;20159;-85
2021/08/13 07:41:23;;;;;;;24.92;17.90;;;20.70;80.00;;;;;;5057272;28;20179;-85
2021/08/13 07:43:49;;;;;;;25.80;18.83;;;20.80;78.90;;;;;;5057820;28;20199;-85
2021/08/13 07:46:14;;;;;;;23.05;17.10;;;20.80;78.90;;;;;;5057226;28;20171;-85
2021/08/13 07:48:40;;;;;;;27.27;19.40;;;20.90;78.90;;;;;;5075300;28;20176;-84
2021/08/13 07:51:06;;;;;;;25.85;18.13;;;20.90;78.60;;;;;;5056916;28;20176;-85
2021/08/13 07:53:32;;;;;;;27.60;20.33;;;21.10;78.20;;;;;;5077124;28;20226;-84
2021/08/13 07:55:58;;;;;;;25.95;19.40;;;21.20;78.20;;;;;;5059411;28;20183;-84
2021/08/13 07:58:23;;;;;;;24.02;19.60;;;21.20;78.30;;;;;;5059796;28;20602;-84
2021/08/13 08:00:49;;;;;;;24.42;19.35;;;21.30;78.90;;;;;;5077410;28;20163;-84
2021/08/13 08:03:15;;;;;;;30.20;20.80;;;21.30;78.30;;;;;;5059119;28;20198;-83
2021/08/13 08:05:41;;;;;;;24.60;19.42;;;21.40;78.10;;;;;;5076403;28;20548;-85
2021/08/13 08:08:09;;;;;;;35.33;20.10;;;21.40;77.90;;;;;;5058247;28;20179;-85
2021/08/13 08:10:36;;;;;;;25.52;19.15;;;21.40;76.70;;;;;;5041423;28;20273;-84
2021/08/13 08:13:02;;;;;;;25.73;19.58;;;21.50;77.10;;;;;;5057476;28;20253;-85
2021/08/13 08:15:29;;;;;;;27.23;21.02;;;21.60;78.30;;;;;;5075587;28;20632;-84
2021/08/13 08:17:55;;;;;;;24.35;19.50;;;21.70;77.50;;;;;;5075509;28;20164;-84
2021/08/13 08:20:21;;;;;;;24.42;19.40;;;21.80;77.70;;;;;;5057752;28;20195;-84
2021/08/13 08:22:47;;;;;;;33.13;18.52;;;21.90;77.40;;;;;;5057390;28;20207;-84
2021/08/13 08:25:13;;;;;;;26.00;19.08;;;22.10;77.70;;;;;;5057744;28;20187;-83
2021/08/13 08:27:39;;;;;;;21.77;18.25;;;22.10;76.50;;;;;;5075999;28;20186;-83
2021/08/13 08:30:06;;;;;;;25.52;18.17;;;22.10;76.10;;;;;;5075526;28;20168;-83
2021/08/13 08:32:32;;;;;;;25.05;18.92;;;22.30;76.10;;;;;;5075070;28;20191;-83
2021/08/13 08:34:58;;;;;;;27.02;19.30;;;22.30;74.70;;;;;;5075341;28;20203;-83
2021/08/13 08:37:23;;;;;;;24.13;17.45;;;22.20;74.90;;;;;;5057347;28;20266;-84
2021/08/13 08:39:49;;;;;;;23.27;17.95;;;22.30;75.90;;;;;;5075074;28;20225;-83
2021/08/13 08:42:19;;;;;;;26.63;18.77;;;22.40;75.20;;;;;;5074416;28;20261;-83
2021/08/13 08:44:46;;;;;;;25.73;18.83;;;22.50;74.10;;;;;;5056152;28;20171;-83
2021/08/13 08:47:12;;;;;;;20.83;17.25;;;22.70;74.10;;;;;;5074259;28;20171;-83
2021/08/13 08:49:39;;;;;;;22.63;16.27;;;22.70;73.60;;;;;;5055943;28;20179;-83
2021/08/13 08:52:09;;;;;;;21.30;16.75;;;22.70;72.60;;;;;;5073672;28;20178;-84
2021/08/13 08:54:36;;;;;;;27.75;18.00;;;22.70;73.20;;;;;;5055702;28;20348;-83
2021/08/13 08:57:06;;;;;;;22.55;14.93;;;22.70;72.50;;;;;;5055781;28;20308;-84
2021/08/13 08:59:32;;;;;;;28.52;16.05;;;22.90;72.50;;;;;;5073554;28;20628;-84
2021/08/13 09:01:58;;;;;;;19.73;14.07;;;22.90;72.00;;;;;;5073934;28;20168;-84
2021/08/13 09:04:24;;;;;;;20.17;14.75;;;23.10;72.40;;;;;;5073563;28;20566;-84
2021/08/13 09:06:50;;;;;;;18.50;13.82;;;23.10;71.10;;;;;;5055758;28;20225;-85
2021/08/13 09:09:16;;;;;;;20.63;15.50;;;23.20;70.20;;;;;;5055567;28;20277;-84
2021/08/13 09:11:43;;;;;;;16.83;13.75;;;23.20;70.80;;;;;;5055582;28;20681;-85
2021/08/13 09:14:11;;;;;;;14.35;12.95;;;23.30;71.60;;;;;;5073671;28;20237;-85
2021/08/13 09:16:38;;;;;;;15.32;12.98;;;23.50;71.20;;;;;;5055711;28;20214;-85
2021/08/13 09:19:08;;;;;;;19.60;13.20;;;23.30;69.00;;;;;;5073481;28;20246;-84
2021/08/13 09:21:35;;;;;;;16.92;12.48;;;23.40;69.50;;;;;;5073779;28;20226;-85
2021/08/13 09:24:13;;;;;;;18.92;13.45;;;23.40;70.10;;;;;;5055390;28;20218;-86
2021/08/13 09:26:41;;;;;;;15.45;11.82;;;23.30;69.60;;;;;;5055647;28;20671;-86
2021/08/13 09:29:09;;;;;;;14.77;12.23;;;23.40;68.60;;;;;;5073640;28;20171;-85
2021/08/13 09:31:36;;;;;;;18.50;13.27;;;23.50;68.80;;;;;;5055395;28;20229;-87
2021/08/13 09:34:10;;;;;;;17.75;13.30;;;23.40;68.70;;;;;;5072481;28;20199;-85
2021/08/13 09:36:56;;;;;;;18.80;12.80;;;23.50;68.90;;;;;;5073524;28;20230;-86
2021/08/13 09:39:30;;;;;;;15.82;13.73;;;23.60;70.40;;;;;;5073259;28;20175;-85
2021/08/13 09:41:58;;;;;;;16.40;13.23;;;23.80;69.50;;;;;;5056622;28;20237;-85
2021/08/13 09:44:25;;;;;;;21.85;14.65;;;23.80;68.80;;;;;;5056001;28;20178;-85
2021/08/13 09:46:57;;;;;;;18.55;14.85;;;23.80;68.60;;;;;;5055283;28;20190;-87
2021/08/13 09:49:23;;;;;;;21.83;14.02;;;23.80;69.00;;;;;;5055237;28;20175;-85
2021/08/13 09:51:49;;;;;;;17.65;13.10;;;23.80;68.10;;;;;;5055428;28;20185;-85
2021/08/13 09:54:15;;;;;;;20.23;13.20;;;23.80;67.20;;;;;;5055412;28;20199;-85
2021/08/13 09:56:41;;;;;;;17.92;14.32;;;23.90;67.60;;;;;;5073693;28;20163;-85
2021/08/13 09:59:08;;;;;;;16.30;13.48;;;24.10;68.50;;;;;;5073129;28;20172;-86
2021/08/13 10:01:48;;;;;;;21.35;14.70;;;24.20;67.40;;;;;;5073512;28;20167;-85
2021/08/13 10:04:16;;;;;;;16.77;14.00;;;24.10;66.40;;;;;;5073015;28;20198;-86
2021/08/13 10:06:43;;;;;;;17.95;13.82;;;24.10;67.40;;;;;;5054767;28;20236;-85
2021/08/13 10:09:22;;;;;;;20.27;14.35;;;24.20;66.90;;;;;;5055090;28;20187;-85
2021/08/13 10:12:03;;;;;;;14.98;13.27;;;24.20;67.00;;;;;;5073293;28;20740;-85
2021/08/13 10:14:37;;;;;;;18.50;14.45;;;24.20;67.70;;;;;;5072769;28;20583;-85
2021/08/13 10:17:10;;;;;;;16.08;13.85;;;24.00;66.60;;;;;;5055522;28;20175;-85
2021/08/13 10:19:37;;;;;;;25.70;13.45;;;24.10;67.30;;;;;;5073282;28;20160;-85
2021/08/13 10:22:03;;;;;;;19.23;13.27;;;24.20;67.20;;;;;;5072638;28;20183;-85
2021/08/13 10:24:30;;;;;;;23.42;13.32;;;24.20;66.20;;;;;;5055095;28;20191;-85
2021/08/13 10:26:56;;;;;;;17.35;12.88;;;24.20;66.10;;;;;;5055191;28;20714;-84
2021/08/13 10:29:23;;;;;;;17.48;11.73;;;24.40;67.20;;;;;;5073359;28;20185;-84
2021/08/13 10:31:49;;;;;;;15.88;11.07;;;24.30;66.50;;;;;;5072898;28;20172;-84
2021/08/13 10:34:14;;;;;;;17.92;12.50;;;24.50;67.20;;;;;;5054505;28;20244;-85
2021/08/13 10:36:45;;;;;;;14.45;11.38;;;24.50;66.20;;;;;;5072681;28;20171;-84
2021/08/13 10:39:12;;;;;;;13.55;11.82;;;24.50;65.80;;;;;;5054733;28;20194;-85
2021/08/13 10:41:40;;;;;;;23.75;11.32;;;24.60;65.90;;;;;;5072502;28;20168;-84
2021/08/13 10:44:14;;;;;;;17.60;11.95;;;24.70;65.80;;;;;;5054593;28;20202;-86
2021/08/13 10:46:41;;;;;;;16.65;11.57;;;24.80;66.00;;;;;;5057836;28;20183;-85
2021/08/13 10:49:12;;;;;;;14.65;11.00;;;24.70;64.60;;;;;;5076010;28;20171;-85
2021/08/13 10:51:38;;;;;;;13.75;10.60;;;24.90;64.30;;;;;;5075893;28;20240;-85
2021/08/13 10:54:08;;;;;;;14.48;10.68;;;25.10;65.90;;;;;;5076062;28;20195;-85
2021/08/13 10:56:44;;;;;;;16.63;10.48;;;25.20;64.50;;;;;;5075796;28;20179;-86
2021/08/13 10:59:11;;;;;;;14.90;10.18;;;25.20;63.90;;;;;;5058059;28;20195;-86
2021/08/13 11:02:09;;;;;;;15.43;10.85;;;25.10;65.80;;;;;;5058017;28;20266;-86
2021/08/13 11:04:40;;;;;;;16.33;10.80;;;25.10;64.40;;;;;;5057878;28;20186;-86
2021/08/13 11:07:05;;;;;;;16.30;9.75;;;25.00;63.50;;;;;;5057968;28;20199;-86
2021/08/13 11:09:33;;;;;;;12.25;9.82;;;25.20;62.80;;;;;;5075849;28;20635;-86
2021/08/13 11:12:10;;;;;;;17.80;10.13;;;25.10;64.10;;;;;;5057651;28;20182;-86
2021/08/13 11:14:52;;;;;;;14.23;10.20;;;25.10;64.20;;;;;;5057711;28;20191;-86
2021/08/13 11:17:38;;;;;;;11.88;10.48;;;25.20;65.70;;;;;;5075599;28;20708;-85
2021/08/13 11:20:05;;;;;;;12.18;9.45;;;25.30;65.40;;;;;;5058515;28;20171;-86
2021/08/13 11:22:35;;;;;;;13.35;10.02;;;25.30;63.20;;;;;;5075399;28;20200;-86
2021/08/13 11:25:03;;;;;;;16.13;9.95;;;25.50;63.90;;;;;;5057604;28;20533;-86
2021/08/13 11:27:28;;;;;;;13.85;10.13;;;25.70;63.00;;;;;;5075596;28;20210;-86
2021/08/13 11:29:54;;;;;;;16.13;10.18;;;25.60;62.10;;;;;;5075639;28;20640;-86
2021/08/13 11:32:19;;;;;;;14.30;10.10;;;25.30;62.50;;;;;;5057325;28;20195;-85
2021/08/13 11:35:18;;;;;;;12.20;9.18;;;25.10;62.60;;;;;;5057317;28;20226;-86
2021/08/13 11:37:46;;;;;;;12.45;9.75;;;24.90;64.00;;;;;;5054968;28;20179;-86
2021/08/13 11:40:14;;;;;;;17.45;9.50;;;25.10;64.70;;;;;;5075223;28;20179;-86
2021/08/13 11:42:53;;;;;;;12.95;9.32;;;25.40;63.80;;;;;;5057208;28;20270;-86
2021/08/13 11:45:20;;;;;;;16.73;9.45;;;25.30;63.70;;;;;;5075066;28;20675;-86
2021/08/13 11:47:53;;;;;;;12.10;8.63;;;25.10;64.90;;;;;;5057138;28;20258;-85
2021/08/13 11:50:20;;;;;;;13.93;8.00;;;25.20;65.00;;;;;;5057257;28;20180;-86
2021/08/13 11:52:46;;;;;;;18.58;9.52;;;25.30;64.10;;;;;;5074846;28;20195;-86
2021/08/13 11:55:21;;;;;;;13.57;10.27;;;25.30;63.70;;;;;;5056848;28;20199;-86
2021/08/13 11:57:47;;;;;;;14.68;10.50;;;25.30;64.40;;;;;;5055957;28;20587;-86
2021/08/13 12:00:24;;;;;;;12.88;9.65;;;25.60;63.40;;;;;;5057052;28;20199;-86
2021/08/13 12:03:23;;;;;;;9.90;8.90;;;25.70;62.80;;;;;;5056759;28;20309;-86
2021/08/13 12:05:48;;;;;;;14.80;10.27;;;25.20;62.30;;;;;;5074638;28;20179;-86
2021/08/13 12:08:16;;;;;;;13.77;9.95;;;25.30;63.50;;;;;;5074664;28;20178;-86
2021/08/13 12:10:51;;;;;;;15.40;10.27;;;25.20;62.80;;;;;;5056952;28;20171;-86
2021/08/13 12:13:16;;;;;;;14.55;9.60;;;24.90;64.20;;;;;;5056601;28;20195;-86
2021/08/13 12:15:43;;;;;;;14.70;9.50;;;24.90;64.40;;;;;;5074455;28;20246;-86
2021/08/13 12:18:10;;;;;;;12.18;9.02;;;25.10;65.40;;;;;;5074413;28;20191;-86
2021/08/13 12:20:37;;;;;;;14.55;9.93;;;25.30;63.50;;;;;;5074497;28;20251;-86
2021/08/13 12:23:09;;;;;;;13.73;10.75;;;25.40;64.10;;;;;;5074380;28;20278;-86
2021/08/13 12:25:43;;;;;;;11.02;9.73;;;25.10;63.80;;;;;;5056548;28;20713;-86
2021/08/13 12:28:11;;;;;;;18.48;10.70;;;25.20;64.30;;;;;;5056543;28;20250;-86
2021/08/13 12:30:37;;;;;;;13.98;10.25;;;25.20;64.50;;;;;;5056363;28;20175;-86
2021/08/13 12:33:04;;;;;;;17.05;10.23;;;25.20;63.90;;;;;;5074228;28;20187;-86